Time;durP1;ratioP1;P1;durP2;ratioP2;P2;SDS_P1;SDS_P2;PMS_P1;PMS_P2;Temp;Humidity;BMP_temperature;BMP_pressure;BME280_temperature;BME280_humidity;BME280_pressure;Samples;Min_cycle;Max_cycle;Signal;HPM_P1;HPM_P2
2023/11/24 00:01:49;;;;;;;15.13;2.60;;;8.10;99.90;;;;;;5005250;28;20025;-68
2023/11/24 00:04:15;;;;;;;14.57;2.72;;;8.20;99.90;;;;;;5003331;28;20058;-69
2023/11/24 00:06:41;;;;;;;18.50;3.17;;;8.10;99.90;;;;;;5002256;28;20030;-69
2023/11/24 00:09:07;;;;;;;19.05;2.92;;;8.20;99.90;;;;;;5000691;28;20362;-69
2023/11/24 00:11:34;;;;;;;8.60;1.75;;;8.00;99.90;;;;;;4994620;28;20026;-69
2023/11/24 00:14:03;;;;;;;11.45;2.00;;;7.90;99.90;;;;;;5020573;28;20044;-69
2023/11/24 00:16:29;;;;;;;16.45;2.92;;;7.80;99.90;;;;;;5030567;28;20478;-69
2023/11/24 00:18:55;;;;;;;11.32;2.22;;;7.70;99.90;;;;;;5037180;28;20516;-68
2023/11/24 00:21:25;;;;;;;16.33;2.03;;;7.60;99.90;;;;;;5024021;28;20021;-68
2023/11/24 00:23:51;;;;;;;14.73;2.85;;;7.60;99.90;;;;;;5022154;28;20026;-68
2023/11/24 00:26:20;;;;;;;8.82;2.00;;;7.50;99.90;;;;;;5039555;28;20565;-68
2023/11/24 00:28:46;;;;;;;10.27;1.63;;;7.40;99.90;;;;;;5028023;28;20038;-68
2023/11/24 00:31:12;;;;;;;15.13;2.58;;;7.30;99.90;;;;;;5022569;28;20025;-68
2023/11/24 00:33:40;;;;;;;11.15;2.00;;;7.30;99.90;;;;;;5021353;28;20057;-68
2023/11/24 00:36:08;;;;;;;11.68;2.05;;;7.20;99.90;;;;;;5020387;28;20030;-69
2023/11/24 00:38:35;;;;;;;8.50;1.63;;;7.20;99.90;;;;;;5021949;28;20032;-68
2023/11/24 00:41:01;;;;;;;17.17;2.20;;;7.20;99.90;;;;;;5023228;28;20430;-68
2023/11/24 00:43:26;;;;;;;8.35;1.92;;;7.10;99.90;;;;;;5020774;28;20049;-68
2023/11/24 00:45:53;;;;;;;12.48;2.10;;;7.00;99.90;;;;;;5023165;28;20025;-68
2023/11/24 00:48:21;;;;;;;9.50;2.00;;;7.00;99.90;;;;;;5026898;28;20128;-68
2023/11/24 00:50:50;;;;;;;13.20;2.45;;;7.00;99.90;;;;;;5022096;28;20022;-68
2023/11/24 00:53:16;;;;;;;12.73;2.20;;;7.00;99.90;;;;;;5019908;28;20033;-68
2023/11/24 00:55:42;;;;;;;8.02;2.40;;;7.00;99.90;;;;;;5035727;28;20034;-68
2023/11/24 00:58:07;;;;;;;10.55;2.17;;;7.00;99.90;;;;;;5028503;28;20025;-68
2023/11/24 01:00:33;;;;;;;16.60;1.83;;;7.10;99.90;;;;;;5019905;28;20026;-68
2023/11/24 01:02:58;;;;;;;12.43;1.98;;;7.10;99.90;;;;;;5021243;28;20358;-68
2023/11/24 01:05:24;;;;;;;9.60;1.90;;;7.20;99.90;;;;;;5023058;28;20033;-68
2023/11/24 01:07:50;;;;;;;6.22;1.80;;;7.20;99.90;;;;;;5020426;28;20022;-68
2023/11/24 01:10:15;;;;;;;10.15;1.60;;;7.20;99.90;;;;;;5015678;28;20076;-68
2023/11/24 01:12:41;;;;;;;8.90;1.75;;;7.20;99.90;;;;;;5029087;28;20049;-68
2023/11/24 01:15:08;;;;;;;9.15;1.73;;;7.20;99.90;;;;;;5020948;28;20105;-68
2023/11/24 01:17:35;;;;;;;11.63;1.83;;;7.20;99.90;;;;;;5027144;28;20033;-68
2023/11/24 01:20:01;;;;;;;7.72;1.30;;;7.10;99.90;;;;;;5022547;28;20067;-68
2023/11/24 01:22:27;;;;;;;8.93;1.60;;;7.00;99.90;;;;;;5019962;28;20030;-68
2023/11/24 01:24:55;;;;;;;12.02;1.55;;;7.00;99.90;;;;;;5022701;28;20124;-68
2023/11/24 01:27:20;;;;;;;11.38;1.67;;;7.00;99.90;;;;;;5024428;28;20401;-68
2023/11/24 01:29:46;;;;;;;15.02;2.03;;;7.00;99.90;;;;;;5018759;28;20048;-68
2023/11/24 01:32:11;;;;;;;10.15;1.80;;;6.90;99.90;;;;;;5021892;28;20029;-68
2023/11/24 01:34:38;;;;;;;17.85;2.00;;;6.90;99.90;;;;;;5020003;28;20168;-68
2023/11/24 01:37:04;;;;;;;8.30;1.60;;;6.80;99.90;;;;;;5022186;28;20029;-68
2023/11/24 01:39:29;;;;;;;8.32;1.65;;;6.90;99.90;;;;;;5019310;28;20112;-68
2023/11/24 01:41:56;;;;;;;10.93;1.70;;;6.70;99.90;;;;;;5028027;28;20583;-68
2023/11/24 01:44:22;;;;;;;4.43;1.00;;;6.70;99.90;;;;;;5036557;28;20040;-66
2023/11/24 01:46:48;;;;;;;3.95;1.48;;;6.70;99.90;;;;;;5019692;28;20898;-66
2023/11/24 01:49:14;;;;;;;5.60;1.55;;;6.70;99.90;;;;;;5028873;28;20044;-66
2023/11/24 01:51:41;;;;;;;10.73;1.98;;;6.60;99.90;;;;;;5019856;28;20026;-66
2023/11/24 01:54:07;;;;;;;6.68;1.63;;;6.60;99.90;;;;;;5020735;28;20025;-65
2023/11/24 01:56:32;;;;;;;5.95;1.27;;;6.60;99.90;;;;;;5025266;28;20033;-65
2023/11/24 01:58:59;;;;;;;4.97;1.10;;;6.50;99.90;;;;;;5019234;28;20105;-65
2023/11/24 02:01:26;;;;;;;10.23;1.88;;;6.40;99.90;;;;;;5017839;28;20030;-65
2023/11/24 02:03:51;;;;;;;9.23;1.50;;;6.40;99.90;;;;;;5020032;28;20073;-65
2023/11/24 02:06:18;;;;;;;6.45;1.40;;;6.30;99.90;;;;;;5038537;28;20099;-65
2023/11/24 02:08:43;;;;;;;6.43;1.40;;;6.30;99.90;;;;;;5018333;28;20033;-65
2023/11/24 02:11:09;;;;;;;4.88;1.20;;;6.20;99.90;;;;;;5020227;28;20036;-66
2023/11/24 02:13:35;;;;;;;11.88;1.63;;;6.20;99.90;;;;;;5018198;28;20128;-65
2023/11/24 02:16:01;;;;;;;1.63;0.70;;;6.10;99.90;;;;;;5022246;28;20503;-65
2023/11/24 02:18:26;;;;;;;9.90;1.80;;;6.10;99.90;;;;;;5017262;28;20034;-65
2023/11/24 02:20:52;;;;;;;10.93;1.73;;;6.00;99.90;;;;;;5027466;28;20116;-65
2023/11/24 02:23:17;;;;;;;14.07;1.92;;;6.10;99.90;;;;;;5020046;28;20105;-65
2023/11/24 02:25:43;;;;;;;11.60;1.90;;;6.00;99.90;;;;;;5019558;28;20388;-65
2023/11/24 02:28:09;;;;;;;14.20;1.80;;;6.00;99.90;;;;;;5021851;28;20699;-65
2023/11/24 02:30:35;;;;;;;7.05;1.35;;;5.90;99.90;;;;;;5017338;28;20037;-65
2023/11/24 02:33:00;;;;;;;6.35;1.50;;;5.90;99.90;;;;;;5021329;28;20021;-65
2023/11/24 02:35:28;;;;;;;8.98;1.35;;;5.90;99.90;;;;;;5019506;28;20033;-65
2023/11/24 02:37:55;;;;;;;9.80;1.80;;;5.90;99.90;;;;;;5019629;28;20036;-65
2023/11/24 02:40:21;;;;;;;4.68;1.00;;;5.90;99.90;;;;;;5020936;28;20076;-65
2023/11/24 02:42:47;;;;;;;6.70;1.30;;;5.90;99.90;;;;;;5018615;28;20121;-65
2023/11/24 02:45:13;;;;;;;8.73;1.50;;;6.00;99.90;;;;;;5021012;28;20108;-65
2023/11/24 02:47:40;;;;;;;10.38;1.63;;;6.10;99.90;;;;;;5018050;28;20041;-65
2023/11/24 02:50:07;;;;;;;10.30;1.52;;;6.10;99.90;;;;;;5019416;28;20029;-65
2023/11/24 02:52:33;;;;;;;8.20;1.50;;;6.10;99.90;;;;;;5021272;28;20034;-65
2023/11/24 02:54:59;;;;;;;8.30;1.27;;;6.20;99.90;;;;;;5033327;28;20030;-68
2023/11/24 02:57:24;;;;;;;7.47;1.65;;;6.20;99.90;;;;;;5024625;28;20048;-68
2023/11/24 02:59:50;;;;;;;6.07;1.20;;;6.30;99.90;;;;;;5019461;28;20021;-68
2023/11/24 03:02:16;;;;;;;10.52;1.70;;;6.30;99.90;;;;;;5018026;28;20018;-68
2023/11/24 03:04:42;;;;;;;7.32;1.33;;;6.20;99.90;;;;;;5019440;28;20484;-68
2023/11/24 03:07:09;;;;;;;6.32;1.20;;;6.20;99.90;;;;;;5020515;28;20036;-68
2023/11/24 03:09:35;;;;;;;9.25;1.38;;;6.10;99.90;;;;;;5025346;28;20418;-68
2023/11/24 03:12:02;;;;;;;7.03;1.45;;;6.10;99.90;;;;;;5020912;28;20025;-68
2023/11/24 03:14:29;;;;;;;11.32;1.75;;;6.10;99.90;;;;;;5020951;28;20111;-68
2023/11/24 03:16:55;;;;;;;7.80;1.50;;;6.10;99.90;;;;;;5027668;28;20040;-68
2023/11/24 03:19:21;;;;;;;7.22;1.27;;;6.10;99.90;;;;;;5017940;28;20049;-68
2023/11/24 03:21:47;;;;;;;10.65;1.45;;;6.30;99.90;;;;;;5021550;28;20022;-68
2023/11/24 03:24:13;;;;;;;6.63;1.45;;;6.20;99.90;;;;;;5018288;28;20061;-68
2023/11/24 03:26:38;;;;;;;7.45;1.65;;;6.10;99.90;;;;;;5025458;28;20519;-68
2023/11/24 03:29:07;;;;;;;10.75;1.33;;;6.10;99.90;;;;;;5028413;28;20029;-68
2023/11/24 03:31:33;;;;;;;10.27;2.03;;;6.10;99.90;;;;;;5023531;28;20466;-68
2023/11/24 03:34:03;;;;;;;6.57;1.27;;;6.10;99.90;;;;;;5028847;28;20041;-68
2023/11/24 03:36:28;;;;;;;7.63;1.85;;;6.10;99.90;;;;;;5024127;28;20034;-68
2023/11/24 03:38:54;;;;;;;7.10;1.10;;;6.10;99.90;;;;;;5023323;28;20413;-68
2023/11/24 03:41:19;;;;;;;5.35;1.45;;;6.10;99.90;;;;;;5025302;28;20029;-68
2023/11/24 03:43:45;;;;;;;8.45;1.40;;;6.10;99.90;;;;;;5022544;28;20169;-68
2023/11/24 03:46:12;;;;;;;9.38;1.70;;;6.10;99.90;;;;;;5024709;28;20034;-68
2023/11/24 03:48:39;;;;;;;12.70;1.50;;;6.20;99.90;;;;;;5016716;28;20092;-68
2023/11/24 03:51:06;;;;;;;8.90;1.80;;;6.20;99.90;;;;;;5023291;28;20037;-68
2023/11/24 03:53:31;;;;;;;6.68;0.98;;;6.10;99.90;;;;;;5023595;28;20025;-68
2023/11/24 03:55:57;;;;;;;7.45;1.60;;;6.10;99.90;;;;;;5024448;28;20029;-68
2023/11/24 03:58:29;;;;;;;10.75;2.17;;;6.10;99.90;;;;;;5035291;28;20041;-68
2023/11/24 04:00:54;;;;;;;8.55;1.83;;;6.00;99.90;;;;;;5017096;28;20053;-70
2023/11/24 04:03:20;;;;;;;13.52;2.55;;;5.90;99.90;;;;;;5023024;28;20076;-66
2023/11/24 04:05:47;;;;;;;16.65;2.28;;;5.80;99.90;;;;;;5023422;28;20030;-66
2023/11/24 04:08:14;;;;;;;6.32;1.30;;;5.80;99.90;;;;;;5021242;28;20109;-66
2023/11/24 04:10:39;;;;;;;10.25;2.33;;;5.70;99.90;;;;;;5024506;28;20108;-68
2023/11/24 04:13:05;;;;;;;9.93;2.03;;;5.70;99.90;;;;;;5019541;28;20493;-67
2023/11/24 04:15:30;;;;;;;11.20;2.50;;;5.70;99.90;;;;;;5023407;28;20029;-67
2023/11/24 04:17:57;;;;;;;6.70;1.38;;;5.60;99.90;;;;;;5022661;28;20034;-67
2023/11/24 04:20:25;;;;;;;11.02;2.03;;;5.60;99.90;;;;;;5021283;28;20041;-67
2023/11/24 04:22:51;;;;;;;7.78;1.92;;;5.50;99.90;;;;;;5024427;28;20156;-68
2023/11/24 04:25:16;;;;;;;6.45;1.73;;;5.50;99.90;;;;;;5027705;28;20129;-67
2023/11/24 04:27:42;;;;;;;17.83;2.17;;;5.50;99.90;;;;;;5026276;28;20038;-67
2023/11/24 04:30:08;;;;;;;7.03;1.50;;;5.50;99.90;;;;;;5022107;28;20026;-67
2023/11/24 04:32:33;;;;;;;7.65;1.63;;;5.50;99.90;;;;;;5023076;28;20030;-67
2023/11/24 04:35:01;;;;;;;10.60;1.95;;;5.40;99.90;;;;;;5020123;28;20037;-67
2023/11/24 04:37:27;;;;;;;6.22;1.60;;;5.30;99.90;;;;;;5023948;28;20036;-67
2023/11/24 04:39:53;;;;;;;6.03;1.33;;;5.30;99.90;;;;;;5029914;28;20026;-67
2023/11/24 04:42:20;;;;;;;11.20;1.90;;;5.20;99.90;;;;;;5021417;28;20026;-67
2023/11/24 04:44:46;;;;;;;16.38;2.33;;;5.20;99.90;;;;;;5028234;28;20056;-67
2023/11/24 04:47:11;;;;;;;7.10;1.65;;;5.10;99.90;;;;;;5021350;28;20029;-67
2023/11/24 04:49:37;;;;;;;14.88;2.15;;;5.10;99.90;;;;;;5020432;28;20512;-67
2023/11/24 04:52:04;;;;;;;17.67;2.95;;;5.10;99.90;;;;;;5023403;28;20592;-67
2023/11/24 04:54:29;;;;;;;7.35;1.27;;;5.10;99.90;;;;;;5020512;28;20057;-67
2023/11/24 04:56:56;;;;;;;8.43;1.20;;;5.10;99.90;;;;;;5025764;28;20481;-67
2023/11/24 04:59:23;;;;;;;9.82;1.63;;;5.10;99.90;;;;;;5020659;28;20034;-67
2023/11/24 05:01:49;;;;;;;10.02;1.45;;;5.10;99.90;;;;;;5020466;28;20401;-67
2023/11/24 05:04:17;;;;;;;3.50;0.90;;;5.10;99.90;;;;;;5022770;28;20021;-65
2023/11/24 05:06:43;;;;;;;11.13;1.85;;;5.10;99.90;;;;;;5020897;28;20026;-66
2023/11/24 05:09:09;;;;;;;6.70;1.38;;;5.10;99.90;;;;;;5027257;28;20116;-67
2023/11/24 05:11:39;;;;;;;7.80;1.83;;;5.10;99.90;;;;;;5021300;28;20032;-67
2023/11/24 05:14:06;;;;;;;6.60;1.65;;;5.10;99.90;;;;;;5033792;28;20518;-68
2023/11/24 05:16:34;;;;;;;9.32;1.40;;;5.20;99.90;;;;;;5019454;28;20458;-68
2023/11/24 05:18:59;;;;;;;5.35;1.58;;;5.10;99.90;;;;;;5036339;28;20049;-68
2023/11/24 05:21:25;;;;;;;10.50;2.35;;;5.20;99.90;;;;;;5018057;28;20068;-68
2023/11/24 05:23:50;;;;;;;7.68;1.45;;;5.30;99.90;;;;;;5021984;28;20645;-68
2023/11/24 05:26:17;;;;;;;10.88;1.77;;;5.30;99.90;;;;;;5022628;28;20045;-68
2023/11/24 05:28:44;;;;;;;11.07;1.90;;;5.30;99.90;;;;;;5019356;28;20466;-68
2023/11/24 05:31:13;;;;;;;7.28;1.70;;;5.30;99.90;;;;;;5017833;28;20032;-68
2023/11/24 05:33:39;;;;;;;13.40;2.20;;;5.20;99.90;;;;;;5025590;28;20052;-67
2023/11/24 05:36:09;;;;;;;13.90;2.78;;;5.20;99.90;;;;;;5018026;28;20378;-67
2023/11/24 05:38:37;;;;;;;6.25;1.83;;;5.30;99.90;;;;;;5018347;28;20103;-67
2023/11/24 05:41:04;;;;;;;13.55;1.95;;;5.20;99.90;;;;;;5020072;28;20018;-67
2023/11/24 05:43:29;;;;;;;12.25;1.55;;;5.20;99.90;;;;;;5020600;28;20037;-67
2023/11/24 05:45:55;;;;;;;8.57;2.78;;;5.20;99.90;;;;;;5021370;28;20022;-67
2023/11/24 05:48:21;;;;;;;17.38;2.33;;;5.20;99.90;;;;;;5017585;28;20061;-67
2023/11/24 05:50:46;;;;;;;9.70;2.15;;;5.20;99.90;;;;;;5018894;28;20055;-67
2023/11/24 05:53:12;;;;;;;7.95;1.60;;;5.20;99.90;;;;;;5017437;28;20084;-67
2023/11/24 05:55:40;;;;;;;10.65;2.63;;;5.20;99.90;;;;;;5026711;28;20366;-67
2023/11/24 05:58:05;;;;;;;17.23;2.28;;;5.20;99.90;;;;;;5024911;28;20040;-67
2023/11/24 06:00:32;;;;;;;9.82;1.95;;;5.20;99.90;;;;;;5019912;28;20021;-67
2023/11/24 06:02:57;;;;;;;7.00;1.67;;;5.20;99.90;;;;;;5018657;28;20450;-67
2023/11/24 06:05:23;;;;;;;7.18;1.48;;;5.10;99.90;;;;;;5020840;28;20083;-67
2023/11/24 06:07:48;;;;;;;12.60;1.90;;;5.00;99.90;;;;;;5019469;28;20461;-67
2023/11/24 06:10:14;;;;;;;9.48;1.67;;;5.00;99.90;;;;;;5019367;28;20083;-67
2023/11/24 06:12:40;;;;;;;11.93;1.92;;;4.90;99.90;;;;;;5020519;28;20179;-67
2023/11/24 06:15:08;;;;;;;9.00;2.08;;;4.90;99.90;;;;;;5018168;28;20034;-67
2023/11/24 06:17:34;;;;;;;6.90;1.67;;;4.90;99.90;;;;;;5018380;28;20452;-67
2023/11/24 06:19:59;;;;;;;6.38;1.88;;;4.90;99.90;;;;;;5020759;28;20030;-67
2023/11/24 06:22:25;;;;;;;5.63;1.63;;;4.90;99.90;;;;;;5019100;28;20046;-67
2023/11/24 06:24:50;;;;;;;11.02;2.05;;;4.90;99.90;;;;;;5019275;28;20426;-67
2023/11/24 06:27:16;;;;;;;10.38;2.58;;;4.90;99.90;;;;;;5016146;28;20124;-67
2023/11/24 06:29:42;;;;;;;12.43;2.40;;;4.90;99.90;;;;;;5031450;28;20034;-67
2023/11/24 06:32:11;;;;;;;10.25;2.42;;;4.80;99.90;;;;;;5017438;28;20044;-67
2023/11/24 06:34:37;;;;;;;9.57;2.22;;;4.80;99.90;;;;;;5019746;28;20033;-67
2023/11/24 06:37:03;;;;;;;9.15;2.35;;;4.80;99.90;;;;;;5018122;28;20378;-67
2023/11/24 06:39:29;;;;;;;8.20;2.03;;;4.80;99.90;;;;;;5017895;28;20485;-67
2023/11/24 06:41:56;;;;;;;7.68;1.80;;;4.90;99.90;;;;;;5020888;28;20522;-67
2023/11/24 06:44:23;;;;;;;10.68;1.73;;;4.90;99.90;;;;;;5017477;28;20049;-67
2023/11/24 06:46:48;;;;;;;11.98;2.28;;;4.90;99.90;;;;;;5026045;28;20029;-67
2023/11/24 06:49:15;;;;;;;6.97;1.85;;;4.90;99.90;;;;;;5018746;28;20132;-67
2023/11/24 06:51:41;;;;;;;12.65;2.85;;;5.00;99.90;;;;;;5019390;28;20035;-67
2023/11/24 06:54:06;;;;;;;11.57;2.70;;;4.90;99.90;;;;;;5017195;28;20420;-67
2023/11/24 06:56:34;;;;;;;5.53;1.70;;;4.90;99.90;;;;;;5022922;28;20028;-67
2023/11/24 06:59:00;;;;;;;6.45;1.60;;;5.00;99.90;;;;;;5021529;28;20033;-67
2023/11/24 07:01:31;;;;;;;5.07;1.80;;;4.90;99.90;;;;;;5016339;28;20128;-67
2023/11/24 07:04:00;;;;;;;5.20;1.60;;;4.90;99.90;;;;;;5016709;28;21315;-67
2023/11/24 07:06:26;;;;;;;13.75;1.98;;;4.90;99.90;;;;;;5016830;28;20108;-66
2023/11/24 07:08:52;;;;;;;11.38;2.20;;;4.90;99.90;;;;;;5015679;28;20122;-67
2023/11/24 07:11:19;;;;;;;11.50;2.58;;;4.90;99.90;;;;;;5018086;28;20025;-67
2023/11/24 07:13:45;;;;;;;8.05;2.50;;;4.90;99.90;;;;;;5023786;28;20076;-67
2023/11/24 07:16:10;;;;;;;9.23;2.10;;;4.90;99.90;;;;;;5025988;28;20050;-67
2023/11/24 07:18:36;;;;;;;15.00;2.38;;;5.00;99.90;;;;;;5020576;28;20037;-67
2023/11/24 07:21:04;;;;;;;12.80;2.75;;;5.00;99.90;;;;;;5019715;28;20066;-67
2023/11/24 07:23:31;;;;;;;11.02;3.30;;;5.10;99.90;;;;;;5018866;28;20037;-68
2023/11/24 07:25:57;;;;;;;11.68;2.22;;;5.10;99.90;;;;;;5024828;28;20025;-67
2023/11/24 07:28:23;;;;;;;11.25;2.85;;;5.20;99.90;;;;;;5019500;28;20527;-67
2023/11/24 07:30:49;;;;;;;13.05;3.15;;;5.20;99.90;;;;;;5018679;28;20030;-67
2023/11/24 07:33:15;;;;;;;13.75;2.58;;;5.20;99.90;;;;;;5023652;28;20514;-69
2023/11/24 07:35:41;;;;;;;13.95;2.92;;;5.20;99.90;;;;;;5017566;28;20037;-69
2023/11/24 07:38:06;;;;;;;18.25;2.53;;;5.20;99.90;;;;;;5021381;28;20014;-69
2023/11/24 07:40:32;;;;;;;5.35;1.80;;;5.20;99.90;;;;;;5015608;28;20535;-69
2023/11/24 07:42:58;;;;;;;15.90;2.17;;;5.20;99.90;;;;;;5020501;28;20022;-70
2023/11/24 07:45:25;;;;;;;7.85;1.77;;;5.30;99.90;;;;;;5016813;28;20030;-69
2023/11/24 07:47:50;;;;;;;12.35;1.40;;;5.20;99.90;;;;;;5015425;28;20014;-70
2023/11/24 07:50:17;;;;;;;12.75;2.40;;;5.20;99.90;;;;;;5021384;28;20040;-70
2023/11/24 07:52:46;;;;;;;7.55;1.70;;;5.20;99.90;;;;;;5020819;28;20040;-70
2023/11/24 07:55:13;;;;;;;7.93;1.67;;;5.20;99.90;;;;;;5025915;28;20022;-69
2023/11/24 07:57:40;;;;;;;7.20;1.88;;;5.30;99.90;;;;;;5027117;28;20025;-70
2023/11/24 08:00:12;;;;;;;17.63;2.72;;;5.20;99.90;;;;;;5022333;28;20018;-69
2023/11/24 08:02:38;;;;;;;12.10;2.28;;;5.20;99.90;;;;;;5017004;28;20025;-70
2023/11/24 08:05:04;;;;;;;10.02;2.30;;;5.20;99.90;;;;;;5025905;28;20392;-70
2023/11/24 08:07:30;;;;;;;12.43;3.38;;;5.20;99.90;;;;;;5023661;28;20074;-70
2023/11/24 08:09:56;;;;;;;9.95;2.55;;;5.20;99.90;;;;;;5026279;28;20463;-70
2023/11/24 08:12:22;;;;;;;9.05;2.35;;;5.20;99.90;;;;;;5021529;28;20478;-70
2023/11/24 08:14:47;;;;;;;3.67;1.60;;;5.20;99.90;;;;;;5026073;28;20075;-69
2023/11/24 08:17:13;;;;;;;13.57;2.97;;;5.10;99.90;;;;;;5028190;28;20030;-69
2023/11/24 08:19:39;;;;;;;11.55;2.10;;;5.10;99.90;;;;;;5043070;28;20033;-69
2023/11/24 08:22:04;;;;;;;3.30;1.38;;;5.10;99.90;;;;;;5027404;28;20026;-69
2023/11/24 08:24:30;;;;;;;12.23;2.30;;;5.00;99.90;;;;;;5030332;28;20380;-70
2023/11/24 08:26:57;;;;;;;8.57;1.70;;;4.90;99.90;;;;;;5029558;28;20064;-70
2023/11/24 08:29:22;;;;;;;11.60;2.50;;;4.90;99.90;;;;;;5024361;28;20033;-70
2023/11/24 08:31:49;;;;;;;8.32;2.30;;;5.00;99.90;;;;;;5030866;28;20044;-69
2023/11/24 08:34:15;;;;;;;11.43;2.58;;;5.10;99.90;;;;;;5024573;28;20165;-69
2023/11/24 08:36:41;;;;;;;7.95;2.22;;;5.30;99.90;;;;;;5025118;28;20475;-69
2023/11/24 08:39:12;;;;;;;5.85;1.85;;;5.30;99.90;;;;;;5025715;28;20191;-69
2023/11/24 08:41:39;;;;;;;8.50;2.28;;;5.20;99.90;;;;;;5032101;28;20024;-69
2023/11/24 08:44:09;;;;;;;13.88;2.63;;;5.00;99.90;;;;;;5030433;28;20029;-70
2023/11/24 08:46:34;;;;;;;10.18;2.35;;;4.90;99.90;;;;;;5027448;28;20139;-68
2023/11/24 08:49:01;;;;;;;12.50;3.97;;;4.90;99.90;;;;;;5041558;28;20123;-68
2023/11/24 08:51:27;;;;;;;3.42;1.35;;;4.90;99.90;;;;;;5027466;28;20469;-68
2023/11/24 08:53:53;;;;;;;8.07;1.88;;;4.90;99.90;;;;;;5030454;28;20124;-68
2023/11/24 08:56:18;;;;;;;10.75;2.42;;;5.00;99.90;;;;;;5030958;28;20059;-68
2023/11/24 08:58:44;;;;;;;6.60;2.25;;;5.00;99.90;;;;;;5042121;28;20438;-68
2023/11/24 09:01:12;;;;;;;11.27;2.53;;;5.00;99.90;;;;;;5022532;28;20032;-69
2023/11/24 09:03:38;;;;;;;5.75;1.65;;;5.00;99.90;;;;;;5019514;28;20473;-68
2023/11/24 09:06:04;;;;;;;14.63;2.70;;;5.00;99.90;;;;;;5029055;28;20052;-68
2023/11/24 09:08:30;;;;;;;9.85;2.67;;;4.90;99.90;;;;;;5021292;28;20052;-69
2023/11/24 09:10:55;;;;;;;11.00;2.72;;;4.80;99.90;;;;;;5023059;28;20048;-68
2023/11/24 09:13:22;;;;;;;8.75;1.80;;;4.80;99.90;;;;;;5024795;28;20103;-68
2023/11/24 09:15:49;;;;;;;9.27;2.78;;;4.80;99.90;;;;;;5025040;28;20024;-68
2023/11/24 09:18:15;;;;;;;12.23;3.00;;;4.70;99.90;;;;;;5024554;28;20025;-68
2023/11/24 09:20:41;;;;;;;11.02;3.05;;;4.60;99.90;;;;;;5024198;28;20032;-68
2023/11/24 09:23:07;;;;;;;6.68;2.65;;;4.70;99.90;;;;;;5026203;28;20434;-68
2023/11/24 09:25:33;;;;;;;9.40;2.67;;;5.10;99.90;;;;;;5028270;28;20034;-68
2023/11/24 09:27:59;;;;;;;10.65;2.97;;;5.60;99.90;;;;;;5021031;28;20037;-68
2023/11/24 09:30:25;;;;;;;12.70;2.40;;;5.90;99.90;;;;;;5024533;28;20079;-68
2023/11/24 09:32:54;;;;;;;9.32;2.42;;;6.30;99.90;;;;;;5026583;28;20033;-68
2023/11/24 09:35:21;;;;;;;9.73;2.85;;;6.40;99.90;;;;;;5018430;28;20505;-68
2023/11/24 09:37:47;;;;;;;7.45;2.45;;;6.20;99.90;;;;;;5028562;28;20025;-68
2023/11/24 09:40:16;;;;;;;8.35;2.38;;;6.00;99.90;;;;;;5036700;28;20037;-68
2023/11/24 09:42:47;;;;;;;12.35;2.95;;;5.80;99.90;;;;;;5040894;28;20103;-68
2023/11/24 09:45:19;;;;;;;9.68;3.08;;;5.70;99.90;;;;;;5024016;28;20025;-68
2023/11/24 09:47:51;;;;;;;6.72;2.45;;;5.60;99.90;;;;;;5027704;28;20029;-68
2023/11/24 09:50:24;;;;;;;10.00;1.88;;;5.50;99.90;;;;;;5030375;28;20021;-68
2023/11/24 09:52:51;;;;;;;8.93;2.38;;;5.50;99.90;;;;;;5024632;28;20456;-68
2023/11/24 09:55:17;;;;;;;7.35;1.88;;;5.30;99.90;;;;;;5022517;28;20037;-69
2023/11/24 09:57:43;;;;;;;7.55;1.63;;;5.30;99.90;;;;;;5027385;28;20052;-69
2023/11/24 10:00:10;;;;;;;3.75;1.40;;;5.30;99.90;;;;;;5028777;28;20033;-69
2023/11/24 10:02:36;;;;;;;4.88;1.50;;;5.30;99.90;;;;;;5030384;28;20022;-70
2023/11/24 10:05:05;;;;;;;3.35;1.25;;;5.40;99.90;;;;;;5025008;28;20059;-70
2023/11/24 10:07:32;;;;;;;2.55;1.13;;;5.40;99.90;;;;;;5027336;28;20429;-70
2023/11/24 10:09:58;;;;;;;9.18;1.67;;;5.40;99.90;;;;;;5026012;28;20034;-71
2023/11/24 10:12:25;;;;;;;4.38;1.42;;;5.50;99.90;;;;;;5026893;28;20543;-70
2023/11/24 10:14:54;;;;;;;4.78;1.20;;;5.50;99.90;;;;;;5024157;28;20021;-70
2023/11/24 10:17:22;;;;;;;6.07;1.23;;;5.40;99.90;;;;;;5027509;28;20116;-70
2023/11/24 10:19:51;;;;;;;4.30;1.10;;;5.90;99.90;;;;;;5028557;28;20053;-70
2023/11/24 10:22:20;;;;;;;3.33;1.13;;;5.00;99.90;;;;;;5025234;28;20552;-70
2023/11/24 10:24:47;;;;;;;5.65;1.10;;;4.70;99.90;;;;;;5022551;28;20017;-70
2023/11/24 10:27:23;;;;;;;2.83;0.93;;;4.50;99.90;;;;;;5029126;28;20495;-70
2023/11/24 10:29:50;;;;;;;2.83;0.90;;;4.40;99.90;;;;;;5023916;28;20112;-70
2023/11/24 10:32:24;;;;;;;9.20;1.15;;;4.40;99.90;;;;;;5026031;28;20448;-70
2023/11/24 10:34:51;;;;;;;2.53;0.90;;;4.40;99.90;;;;;;5025956;28;20033;-70
2023/11/24 10:37:20;;;;;;;4.50;1.52;;;4.40;99.90;;;;;;5018019;28;20033;-70
2023/11/24 10:39:47;;;;;;;2.27;0.90;;;4.40;99.90;;;;;;5023866;28;20105;-70
2023/11/24 10:42:15;;;;;;;2.33;0.90;;;7.00;99.90;;;;;;5027943;28;20538;-70
2023/11/24 10:44:43;;;;;;;2.15;0.85;;;4.30;99.90;;;;;;5025397;28;20128;-70
2023/11/24 10:47:10;;;;;;;3.50;1.00;;;4.20;99.90;;;;;;5023987;28;20032;-71
2023/11/24 10:49:45;;;;;;;1.95;0.90;;;4.20;99.90;;;;;;5027552;28;20362;-70
2023/11/24 10:52:27;;;;;;;1.48;0.77;;;4.30;99.90;;;;;;5021213;28;20044;-70
2023/11/24 10:55:14;;;;;;;6.85;1.00;;;4.50;99.90;;;;;;5020931;28;20040;-70
2023/11/24 10:57:41;;;;;;;2.90;1.00;;;4.50;99.90;;;;;;5028851;28;20029;-70
2023/11/24 11:00:08;;;;;;;6.80;1.17;;;4.50;99.90;;;;;;5029576;28;20381;-70
2023/11/24 11:02:39;;;;;;;4.88;0.93;;;4.50;99.90;;;;;;5022406;28;20611;-70
2023/11/24 11:05:40;;;;;;;2.25;0.93;;;4.50;99.90;;;;;;5023678;28;20029;-67
2023/11/24 11:08:20;;;;;;;3.30;1.05;;;4.50;99.90;;;;;;5024988;28;20053;-69
2023/11/24 11:11:01;;;;;;;7.15;1.48;;;4.40;99.90;;;;;;5028323;28;20689;-68
2023/11/24 11:13:30;;;;;;;4.97;1.30;;;4.40;99.90;;;;;;5037586;28;20057;-68
2023/11/24 11:15:55;;;;;;;3.75;0.95;;;4.40;99.90;;;;;;5026001;28;20021;-68
2023/11/24 11:18:25;;;;;;;3.70;1.10;;;4.40;99.90;;;;;;5027640;28;20095;-68
2023/11/24 11:20:51;;;;;;;3.67;1.33;;;4.40;99.90;;;;;;5021436;28;20079;-68
2023/11/24 11:23:17;;;;;;;2.50;0.85;;;4.50;99.90;;;;;;5021212;28;20030;-68
2023/11/24 11:25:46;;;;;;;6.18;1.10;;;4.50;99.90;;;;;;5020482;28;20536;-68
2023/11/24 11:28:19;;;;;;;7.57;1.63;;;4.50;99.90;;;;;;5020028;28;20103;-68
2023/11/24 11:30:46;;;;;;;11.00;1.90;;;4.50;99.90;;;;;;5017979;28;20388;-68
2023/11/24 11:33:15;;;;;;;8.90;1.13;;;4.60;99.90;;;;;;5022043;28;20487;-68
2023/11/24 11:35:44;;;;;;;9.68;1.20;;;4.70;99.90;;;;;;5021497;28;20037;-68
2023/11/24 11:38:13;;;;;;;2.65;1.00;;;4.70;99.90;;;;;;5018308;28;20041;-68
2023/11/24 11:40:44;;;;;;;2.78;0.98;;;4.90;99.90;;;;;;5029519;28;20040;-68
2023/11/24 11:43:15;;;;;;;;;;;5.20;99.90;;;;;;5056966;28;20024;-68
2023/11/24 11:45:50;;;;;;;2.85;0.88;;;5.40;99.90;;;;;;5051257;28;19919;-68
2023/11/24 11:48:17;;;;;;;7.57;1.10;;;5.80;99.90;;;;;;5039178;28;20133;-68
2023/11/24 11:50:56;;;;;;;6.13;1.42;;;6.20;99.90;;;;;;5031840;28;20420;-68
2023/11/24 11:53:25;;;;;;;2.90;1.10;;;6.60;99.90;;;;;;5036432;28;20025;-68
2023/11/24 11:56:06;;;;;;;9.03;1.33;;;6.20;99.90;;;;;;5035814;28;20116;-69
2023/11/24 11:58:34;;;;;;;3.30;1.00;;;5.90;99.90;;;;;;5054385;28;20292;-69
2023/11/24 12:01:06;;;;;;;4.18;1.42;;;5.50;99.90;;;;;;5040847;28;20044;-68
2023/11/24 12:03:35;;;;;;;5.93;1.20;;;5.30;99.90;;;;;;5035432;28;20060;-68
2023/11/24 12:06:05;;;;;;;6.22;1.35;;;5.10;99.90;;;;;;5037820;28;20036;-68
2023/11/24 12:08:38;;;;;;;9.57;1.20;;;4.90;99.90;;;;;;5039671;28;20358;-68
2023/11/24 12:11:06;;;;;;;3.53;1.23;;;4.70;99.90;;;;;;5033260;28;20029;-68
2023/11/24 12:13:32;;;;;;;3.08;1.17;;;4.70;99.90;;;;;;5022225;28;20053;-71
2023/11/24 12:15:59;;;;;;;3.72;1.27;;;4.70;99.90;;;;;;5015305;28;20025;-71
2023/11/24 12:18:24;;;;;;;3.70;1.23;;;4.80;99.90;;;;;;5018607;28;20462;-71
2023/11/24 12:20:51;;;;;;;7.38;1.48;;;5.00;99.90;;;;;;5020457;28;20196;-71
2023/11/24 12:23:18;;;;;;;4.15;1.30;;;5.50;99.90;;;;;;5017756;28;20026;-71
2023/11/24 12:25:47;;;;;;;9.20;1.67;;;5.80;99.90;;;;;;5002230;28;20037;-71
2023/11/24 12:28:13;;;;;;;8.23;1.50;;;6.20;99.90;;;;;;5022732;28;20113;-71
2023/11/24 12:30:46;;;;;;;2.35;1.00;;;6.50;99.90;;;;;;5018058;28;20026;-71
2023/11/24 12:33:14;;;;;;;2.85;1.15;;;6.90;99.90;;;;;;5020154;28;20109;-71
2023/11/24 12:35:48;;;;;;;7.97;1.85;;;7.00;99.90;;;;;;5013188;28;20028;-71
2023/11/24 12:38:17;;;;;;;5.72;1.45;;;7.00;99.90;;;;;;5014068;28;20029;-71
2023/11/24 12:40:44;;;;;;;4.25;1.30;;;6.70;99.90;;;;;;5021235;28;20387;-71
2023/11/24 12:43:17;;;;;;;7.72;1.35;;;6.40;99.90;;;;;;5015929;28;20040;-71
2023/11/24 12:45:46;;;;;;;6.13;1.27;;;6.10;99.90;;;;;;5014746;28;20030;-71
2023/11/24 12:48:22;;;;;;;4.82;1.40;;;6.10;99.90;;;;;;5010430;28;20068;-71
2023/11/24 12:50:50;;;;;;;4.93;1.63;;;5.80;99.90;;;;;;5014527;28;20037;-71
2023/11/24 12:53:18;;;;;;;10.07;1.67;;;5.60;99.90;;;;;;5017117;28;20104;-68